createdAt,value
2022-07-29T03:35:09.420Z,97410.13
2022-07-29T03:40:14.159Z,97410.13
2022-07-29T03:45:18.762Z,97405.76
2022-07-29T03:50:20.933Z,97405.76
2022-07-29T03:55:22.993Z,97409.78
2022-07-29T04:00:25.200Z,97409.78
2022-07-29T04:05:26.992Z,97412.84
2022-07-29T04:10:35.682Z,97413.2
2022-07-29T04:15:37.830Z,97413.2
2022-07-29T04:20:39.630Z,97419.57
2022-07-29T04:25:41.826Z,97419.57
2022-07-29T04:30:43.824Z,97413.09
2022-07-29T04:40:52.160Z,97409.27
2022-07-29T04:45:56.158Z,97409.27
2022-07-29T04:50:59.248Z,97414.38
2022-07-29T04:56:01.003Z,97414.38
2022-07-29T05:01:02.840Z,97420.53
2022-07-29T05:06:04.692Z,97420.53
2022-07-29T05:16:12.833Z,97422.73
2022-07-29T05:21:14.779Z,97421.2
2022-07-29T05:26:16.563Z,97423.09
2022-07-29T05:31:18.672Z,97423.09
2022-07-29T05:36:20.556Z,97415.69
2022-07-29T05:41:22.290Z,97415.69
2022-07-29T05:46:24.319Z,97419.77
2022-07-29T05:51:26.727Z,97419.77
2022-07-29T05:56:28.620Z,97415.31
2022-07-29T06:01:30.566Z,97415.31
2022-07-29T06:06:32.392Z,97416.3
2022-07-29T06:11:34.156Z,97416.3
2022-07-29T06:16:38.163Z,97412.2
2022-07-29T06:21:42.882Z,97412.2
2022-07-29T06:26:44.599Z,97419.33
2022-07-29T06:31:46.468Z,97419.33
2022-07-29T06:36:49.590Z,97429.02
2022-07-29T06:41:52.442Z,97429.02
2022-07-29T06:46:54.259Z,97437.33
2022-07-29T06:51:55.980Z,97438.13
2022-07-29T06:56:58.071Z,97438.13
2022-07-29T07:02:00.035Z,97432.67
2022-07-29T07:07:01.871Z,97432.67
2022-07-29T07:12:03.900Z,97434.05
2022-07-29T07:17:05.883Z,97434.05
2022-07-29T07:22:07.832Z,97430
2022-07-29T07:27:09.651Z,97430
2022-07-29T07:32:11.587Z,97425.92
2022-07-29T07:37:13.676Z,97425.92
2022-07-29T07:42:15.395Z,97417.31
2022-07-29T07:47:18.921Z,97417.31
2022-07-29T07:52:23.572Z,97412.42
2022-07-29T07:57:25.331Z,97412.42
2022-07-29T08:02:27.397Z,97415.25
2022-07-29T08:07:29.280Z,97412.59
2022-07-29T08:12:31.029Z,97412.59
2022-07-29T08:17:36.194Z,97413.55
2022-07-29T08:22:37.886Z,97413.55
2022-07-29T08:27:44.869Z,97409.32
2022-07-29T08:37:54.554Z,97412.13
2022-07-29T08:42:56.278Z,97412.13
2022-07-29T08:47:58.057Z,97406.93
2022-07-29T08:53:00.823Z,97406.93
2022-07-29T08:58:02.603Z,97408.97
2022-07-29T09:03:05.463Z,97408.97
2022-07-29T09:08:07.416Z,97403.06
2022-07-29T09:13:09.311Z,97403.06
2022-07-29T09:28:22.739Z,97395.6
2022-07-29T09:38:30.056Z,97391.2
2022-07-29T09:43:31.745Z,97388.09
2022-07-29T09:48:33.446Z,97388.09
2022-07-29T09:53:36.721Z,97372.19
2022-07-29T09:58:39.355Z,97372.19
2022-07-29T10:08:47.182Z,97370.16
2022-07-29T10:13:49.225Z,97364.28
2022-07-29T10:18:52.742Z,97364.28
2022-07-29T10:29:01.239Z,97362.59
2022-07-29T10:34:06.496Z,97353.54
2022-07-29T10:44:22.786Z,97346.36
2022-07-29T10:49:26.491Z,97335.17
2022-07-29T10:54:37.703Z,97335.17
2022-07-29T10:59:45.798Z,97323.83
2022-07-29T11:15:09.005Z,97326.77
2022-07-29T11:40:43.273Z,97289.02
2022-07-29T11:45:47.615Z,97286.46
2022-07-29T11:50:50.273Z,97286.46
2022-07-29T11:55:56.205Z,97288.38
2022-07-29T12:11:16.635Z,97277.16
2022-07-29T12:21:26.489Z,97265.62
2022-07-29T12:26:30.786Z,97242.67
2022-07-29T12:36:43.688Z,97243.77
2022-07-29T12:41:45.762Z,97239.52
2022-07-29T12:51:52.853Z,97219.7
2022-07-29T12:56:59.228Z,97219.7
2022-07-29T13:02:02.011Z,97212.39
2022-07-29T13:07:05.484Z,97212.39
2022-07-29T13:12:08.475Z,97209.41
2022-07-29T13:17:11.341Z,97209.41
2022-07-29T13:22:13.883Z,97203.55
2022-07-29T13:27:16.294Z,97203.55
2022-07-29T13:32:18.012Z,97197.65
2022-07-29T13:37:20.383Z,97197.65
2022-07-29T13:42:22.150Z,97182.55
2022-07-29T13:52:29.773Z,97170.2
2022-07-29T13:57:31.786Z,97179.55
2022-07-29T14:02:33.543Z,97179.55
2022-07-29T14:07:35.410Z,97173.66
2022-07-29T14:12:37.064Z,97173.66
2022-07-29T14:17:38.700Z,97159.55
2022-07-29T14:27:46.521Z,97151.8
2022-07-29T14:32:48.217Z,97151.8
2022-07-29T14:37:49.940Z,97153.03
2022-07-29T14:42:51.844Z,97153.03
2022-07-29T14:47:58.665Z,97141.5
2022-07-29T14:53:00.566Z,97141.5
2022-07-29T15:03:12.168Z,97120.44
2022-07-29T15:08:19.094Z,97120.44
2022-07-29T15:13:20.783Z,97118.09
2022-07-29T15:18:26.346Z,97118.09
2022-07-29T15:23:28.304Z,97114.86
2022-07-29T15:28:30.121Z,97114.86
2022-07-29T15:33:32.248Z,97106.97
2022-07-29T15:38:33.991Z,97106.97
2022-07-29T15:43:35.822Z,97092.8
2022-07-29T15:48:39.344Z,97092.8
2022-07-29T15:53:41.096Z,97075.31
2022-07-29T15:58:42.874Z,97075.31
2022-07-29T16:03:47.146Z,97085.56
2022-07-29T16:08:49.030Z,97085.56
2022-07-29T16:13:51.760Z,97083.97
2022-07-29T16:18:53.717Z,97087.04
2022-07-29T16:23:55.623Z,97087.04
2022-07-29T16:28:57.788Z,97088.3
2022-07-29T16:34:00.261Z,97088.3
2022-07-29T16:39:02.338Z,97090.33
2022-07-29T16:44:04.501Z,97090.33
2022-07-29T16:49:06.954Z,97089.47
2022-07-29T16:54:08.831Z,97089.47
2022-07-29T16:59:10.608Z,97084.72
2022-07-29T17:04:12.405Z,97084.72
2022-07-29T17:09:14.068Z,97084.59
2022-07-29T17:14:16.679Z,97084.59
2022-07-29T17:19:24.156Z,97077.28
2022-07-29T17:24:25.816Z,97083.09
2022-07-29T17:29:27.577Z,97083.09
2022-07-29T17:34:29.387Z,97093.63
2022-07-29T17:39:31.231Z,97093.63
2022-07-29T17:44:36.985Z,97096.81
2022-07-29T17:49:38.648Z,97096.81
2022-07-29T17:54:40.304Z,97123.32
2022-07-29T17:59:42.125Z,97123.32
2022-07-29T18:04:44.101Z,97139.66
2022-07-29T18:09:45.918Z,97139.66
2022-07-29T18:14:47.697Z,97157.09
2022-07-29T18:19:49.465Z,97157.09
2022-07-29T18:24:51.160Z,97161.83
2022-07-29T18:29:52.968Z,97161.83
2022-07-29T18:34:54.750Z,97159.23
2022-07-29T18:40:00.156Z,97159.48
2022-07-29T18:45:05.304Z,97159.48
2022-07-29T18:50:15.662Z,97168.16
2022-07-29T18:55:17.667Z,97168.16
2022-07-29T19:00:19.414Z,97181.83
2022-07-29T19:05:22.882Z,97181.83
2022-07-29T19:10:24.945Z,97181.97
2022-07-29T19:15:26.886Z,97181.97
2022-07-29T19:20:28.691Z,97184.48
2022-07-29T19:25:30.672Z,97184.48
2022-07-29T19:30:36.962Z,97188.7
2022-07-29T19:35:38.724Z,97188.7
2022-07-29T19:40:40.632Z,97180.18
2022-07-29T19:45:42.426Z,97180.18
2022-07-29T19:50:44.352Z,97182.95
2022-07-29T19:55:47.573Z,97183.27
2022-07-29T20:00:49.430Z,97183.27
2022-07-29T20:05:51.272Z,97176.63
2022-07-29T20:10:53.209Z,97176.63
2022-07-29T20:15:55.209Z,97162.84
2022-07-29T20:20:57.245Z,97162.84
2022-07-29T20:25:59.165Z,97152.36
2022-07-29T20:31:01.270Z,97152.36
2022-07-29T20:36:03.527Z,97165.64
2022-07-29T20:41:05.166Z,97165.64
2022-07-29T20:46:07.015Z,97171.95
2022-07-29T20:51:08.965Z,97171.95
2022-07-29T20:56:10.760Z,97171.95
2022-07-29T21:01:13.227Z,97171.95
2022-07-29T21:06:15.036Z,97171.95
2022-07-29T21:11:16.943Z,97171.95
2022-07-29T21:16:23.566Z,97171.95
2022-07-29T21:21:25.371Z,97171.95
2022-07-29T21:26:28.242Z,97171.95
2022-07-29T21:31:30.689Z,97171.95
2022-07-29T21:41:38.016Z,97171.95
